createdAt,value
2022-11-28T00:02:11.343Z,1
2022-11-28T00:04:15.152Z,1
2022-11-28T00:06:19.084Z,1
2022-11-28T00:07:22.613Z,1
2022-11-28T00:09:26.493Z,1
2022-11-28T00:11:30.459Z,99.6
2022-11-28T00:13:34.412Z,99.8
2022-11-28T00:15:41.469Z,99.8
2022-11-28T00:17:45.309Z,99.8
2022-11-28T00:19:49.220Z,99.8
2022-11-28T00:23:57.110Z,99.9
2022-11-28T00:26:01.056Z,99.9
2022-11-28T00:28:05.000Z,99.9
2022-11-28T00:30:11.976Z,99.9
2022-11-28T00:32:16.059Z,99.9
2022-11-28T00:34:19.852Z,99.9
2022-11-28T00:36:23.801Z,99.9
2022-11-28T00:38:27.733Z,99.9
2022-11-28T00:40:31.677Z,99.9
2022-11-28T00:42:35.644Z,99.9
2022-11-28T00:46:46.544Z,99.9
2022-11-28T00:48:52.066Z,99.9
2022-11-28T00:50:55.962Z,99.9
2022-11-28T00:57:07.848Z,99.9
2022-11-28T00:59:14.779Z,99.9
2022-11-28T01:01:18.827Z,99.9
2022-11-28T01:04:26.161Z,99.9
2022-11-28T01:12:44.973Z,1
2022-11-28T01:18:56.846Z,1
2022-11-28T01:23:04.752Z,96.8
2022-11-28T01:25:08.663Z,97.9
2022-11-28T01:27:15.642Z,98.8
2022-11-28T01:29:19.570Z,99.3
2022-11-28T01:41:46.300Z,1
2022-11-28T01:43:50.252Z,21.7
2022-11-28T01:45:54.214Z,72.1
2022-11-28T01:47:58.177Z,99.6
2022-11-28T01:50:02.129Z,99.8
2022-11-28T01:52:06.056Z,99.8
2022-11-28T01:54:10.004Z,99.8
2022-11-28T01:56:16.971Z,99.8
2022-11-28T01:58:20.939Z,99.8
2022-11-28T02:00:24.885Z,99.9
2022-11-28T02:02:49.002Z,99.9
2022-11-28T02:04:52.982Z,99.9
2022-11-28T02:06:56.914Z,99.9
2022-11-28T02:09:03.883Z,99.9
2022-11-28T02:11:07.865Z,99.9
2022-11-28T02:13:11.834Z,99.9
2022-11-28T02:15:15.824Z,99.9
2022-11-28T02:17:19.735Z,99.9
2022-11-28T02:19:23.686Z,99.9
2022-11-28T02:21:27.629Z,99.9
2022-11-28T02:23:34.635Z,99.9
2022-11-28T02:25:38.594Z,99.9
2022-11-28T02:27:42.549Z,99.9
2022-11-28T02:29:46.509Z,99.9
2022-11-28T02:31:50.521Z,99.9
2022-11-28T02:35:58.378Z,99.9
2022-11-28T02:38:05.331Z,99.9
2022-11-28T02:40:09.286Z,99.9
2022-11-28T02:42:13.262Z,99.9
2022-11-28T02:44:17.219Z,99.9
2022-11-28T02:48:25.107Z,99.9
2022-11-28T02:52:36.044Z,99.9
2022-11-28T02:57:47.427Z,99.9
2022-11-28T02:59:51.403Z,99.9
2022-11-28T03:01:55.406Z,99.9
2022-11-28T03:03:59.312Z,99.9
2022-11-28T03:06:06.295Z,99.9
2022-11-28T03:12:18.166Z,99.9
2022-11-28T03:14:22.104Z,99.9
2022-11-28T03:16:26.114Z,99.9
2022-11-28T03:18:30.024Z,99.9
2022-11-28T03:20:36.993Z,99.9
2022-11-28T03:22:40.972Z,99.9
2022-11-28T03:24:45.013Z,99.9
2022-11-28T03:26:48.896Z,99.9
2022-11-28T03:28:52.832Z,99.9
2022-11-28T03:30:56.804Z,99.9
2022-11-28T03:35:07.732Z,99.9
2022-11-28T03:37:11.685Z,99.9
2022-11-28T03:39:15.668Z,99.9
2022-11-28T03:41:19.614Z,99.9
2022-11-28T03:43:23.606Z,99.9
2022-11-28T03:45:27.565Z,99.9
2022-11-28T03:47:31.655Z,99.9
2022-11-28T03:49:38.489Z,99.9
2022-11-28T03:51:42.471Z,99.9
2022-11-28T03:53:46.426Z,99.9
2022-11-28T03:54:49.926Z,99.9
2022-11-28T03:58:57.867Z,99.9
2022-11-28T04:01:01.852Z,99.9
2022-11-28T04:03:08.870Z,99.9
2022-11-28T04:05:12.764Z,99.9
2022-11-28T04:07:16.784Z,99.9
2022-11-28T04:11:24.685Z,99.9
2022-11-28T04:21:47.529Z,99.9
2022-11-28T04:23:51.481Z,99.9
2022-11-28T04:25:55.445Z,99.9
2022-11-28T04:27:59.425Z,99.9
2022-11-28T04:30:03.398Z,99.9
2022-11-28T04:32:10.386Z,99.9
2022-11-28T04:34:14.330Z,99.9
2022-11-28T04:36:18.327Z,99.9
2022-11-28T04:38:22.410Z,99.9
2022-11-28T04:40:26.257Z,99.9
2022-11-28T04:46:41.165Z,99.9
2022-11-28T04:48:45.308Z,99.9
2022-11-28T04:50:49.105Z,99.9
2022-11-28T04:53:56.603Z,99.9
2022-11-28T04:56:00.525Z,99.9
2022-11-28T04:58:04.518Z,99.9
2022-11-28T05:00:11.502Z,99.9
2022-11-28T05:02:15.536Z,99.9
2022-11-28T05:04:19.460Z,99.9
2022-11-28T05:06:23.415Z,99.9
2022-11-28T05:08:27.389Z,99.9
2022-11-28T05:10:31.344Z,99.9
2022-11-28T05:12:35.317Z,1
2022-11-28T05:14:42.652Z,1
2022-11-28T05:16:46.397Z,1
2022-11-28T05:18:50.270Z,1
2022-11-28T05:20:54.214Z,1
2022-11-28T05:22:58.189Z,1
2022-11-28T05:29:13.136Z,1
2022-11-28T05:31:17.130Z,1
2022-11-28T05:33:21.051Z,1
2022-11-28T05:35:25.016Z,1
2022-11-28T05:37:28.988Z,1
2022-11-28T05:39:32.942Z,1
2022-11-28T05:41:36.945Z,1
2022-11-28T05:43:43.930Z,1
2022-11-28T05:45:47.969Z,1
2022-11-28T05:47:51.833Z,1
2022-11-28T05:50:16.252Z,1
2022-11-28T05:52:20.229Z,1
2022-11-28T05:54:24.213Z,1
2022-11-28T05:56:31.187Z,1
2022-11-28T06:00:39.135Z,1
2022-11-28T06:02:43.124Z,1
2022-11-28T06:06:51.053Z,1
2022-11-28T06:15:09.970Z,1
2022-11-28T06:17:13.941Z,1
2022-11-28T06:19:17.904Z,1
2022-11-28T06:21:21.862Z,1
2022-11-28T06:23:25.843Z,1
2022-11-28T06:27:36.821Z,1
2022-11-28T06:29:41.232Z,1
2022-11-28T06:31:44.891Z,1
2022-11-28T06:33:48.719Z,1
2022-11-28T06:35:52.702Z,1
2022-11-28T06:37:56.665Z,1
2022-11-28T06:45:16.675Z,1
2022-11-28T06:47:20.624Z,1
2022-11-28T06:49:24.624Z,1
2022-11-28T06:51:28.587Z,1
2022-11-28T06:53:35.553Z,1
2022-11-28T06:55:39.556Z,1
2022-11-28T06:57:43.517Z,1
2022-11-28T06:59:47.493Z,1
2022-11-28T07:01:51.515Z,1
2022-11-28T07:03:55.458Z,1
2022-11-28T07:05:59.415Z,1
2022-11-28T07:08:06.482Z,1
2022-11-28T07:10:10.427Z,1
2022-11-28T07:14:18.351Z,1
2022-11-28T07:18:26.310Z,1
2022-11-28T07:20:30.281Z,1
2022-11-28T07:22:37.279Z,1
2022-11-28T07:24:41.277Z,1
2022-11-28T07:26:45.266Z,1
2022-11-28T07:28:49.193Z,1
2022-11-28T07:30:53.176Z,1
2022-11-28T07:32:57.183Z,1
2022-11-28T07:35:01.151Z,1
2022-11-28T07:37:08.141Z,1
2022-11-28T07:39:12.121Z,1
2022-11-28T07:42:19.579Z,1
2022-11-28T07:44:23.570Z,1
2022-11-28T07:46:27.648Z,1
2022-11-28T07:48:31.541Z,1
2022-11-28T07:50:38.512Z,1
2022-11-28T07:52:42.600Z,1
2022-11-28T07:54:46.469Z,1
2022-11-28T07:57:12.650Z,1
2022-11-28T07:58:56.102Z,1
2022-11-28T08:00:58.423Z,1
2022-11-28T08:03:02.494Z,1
2022-11-28T08:05:09.395Z,1
2022-11-28T08:07:13.431Z,1
2022-11-28T08:09:17.314Z,1
2022-11-28T08:11:21.286Z,1
2022-11-28T08:13:25.262Z,1
2022-11-28T08:15:29.242Z,1
2022-11-28T08:17:33.214Z,1
2022-11-28T08:19:40.230Z,1
2022-11-28T08:21:44.192Z,1
2022-11-28T08:23:48.166Z,1
2022-11-28T08:25:52.163Z,1
2022-11-28T08:27:56.103Z,1
2022-11-28T08:30:00.156Z,1
2022-11-28T08:32:04.084Z,1
2022-11-28T08:34:11.066Z,1
2022-11-28T08:36:15.056Z,1
2022-11-28T08:38:19.021Z,1
2022-11-28T08:39:24.422Z,1
2022-11-28T08:41:26.492Z,1
2022-11-28T08:43:30.482Z,1
2022-11-28T08:45:34.485Z,1
2022-11-28T08:47:41.465Z,1
2022-11-28T08:49:45.713Z,1
2022-11-28T08:51:49.409Z,1
2022-11-28T08:53:59.053Z,1
2022-11-28T08:55:57.383Z,1
2022-11-28T08:58:01.368Z,1
2022-11-28T09:00:05.323Z,1
2022-11-28T09:02:12.312Z,1
2022-11-28T09:04:16.461Z,1
2022-11-28T09:06:20.268Z,1
2022-11-28T09:08:24.240Z,1
2022-11-28T09:10:28.252Z,1
2022-11-28T09:12:32.218Z,1
2022-11-28T09:14:36.225Z,1
2022-11-28T09:16:43.289Z,1
2022-11-28T09:18:47.186Z,1
2022-11-28T09:20:51.157Z,1
2022-11-28T09:22:55.217Z,1
2022-11-28T09:24:59.124Z,1
2022-11-28T09:29:07.107Z,1
2022-11-28T09:31:14.153Z,1
2022-11-28T09:33:18.000Z,1
2022-11-28T09:35:22.006Z,1
2022-11-28T09:37:46.441Z,1
2022-11-28T09:40:12.113Z,1
2022-11-28T09:41:54.386Z,1
2022-11-28T09:44:01.394Z,1
2022-11-28T09:46:05.484Z,1
2022-11-28T09:48:09.379Z,1
2022-11-28T09:50:13.390Z,1
2022-11-28T09:52:17.453Z,1
2022-11-28T09:54:21.338Z,1
2022-11-28T09:56:25.332Z,1
2022-11-28T09:58:32.334Z,1
2022-11-28T10:00:36.328Z,1
2022-11-28T10:02:40.284Z,1
2022-11-28T10:04:44.350Z,1
2022-11-28T10:06:48.315Z,99.9
2022-11-28T10:08:52.269Z,99.9
2022-11-28T10:10:56.247Z,99.9
2022-11-28T10:13:03.271Z,99.9
2022-11-28T10:15:07.251Z,99.9
2022-11-28T10:17:11.268Z,99.9
2022-11-28T10:19:31.706Z,99.9
2022-11-28T10:21:19.248Z,99.9
2022-11-28T10:27:34.236Z,99.9
2022-11-28T10:31:42.238Z,99.9
2022-11-28T10:34:49.770Z,99.9
2022-11-28T10:36:53.778Z,99.9
2022-11-28T10:43:08.788Z,99.9
2022-11-28T10:51:24.860Z,99.9
2022-11-28T10:53:28.809Z,99.9
2022-11-28T10:55:35.830Z,99.9
2022-11-28T10:57:39.823Z,99.9
2022-11-28T10:59:44.248Z,99.9
2022-11-28T11:05:55.862Z,99.8
2022-11-28T11:07:59.985Z,32.5
2022-11-28T11:14:14.871Z,1
2022-11-28T11:16:18.991Z,1
2022-11-28T11:18:22.899Z,1
2022-11-28T11:20:26.945Z,99.6
2022-11-28T11:22:30.913Z,99.8
2022-11-28T11:24:37.936Z,99.8
2022-11-28T11:26:42.017Z,99.8
2022-11-28T11:28:45.966Z,99.8
2022-11-28T11:31:53.474Z,99.9
2022-11-28T11:33:57.517Z,99.9
2022-11-28T11:36:01.518Z,99.9
2022-11-28T11:38:08.568Z,99.9
2022-11-28T11:40:12.633Z,99.9
2022-11-28T11:42:16.592Z,99.9
2022-11-28T11:44:20.607Z,99.9
2022-11-28T11:46:24.664Z,99.9
2022-11-28T11:48:28.657Z,99.9
2022-11-28T11:50:32.666Z,99.9
2022-11-28T11:54:43.703Z,1
2022-11-28T11:56:47.707Z,1
2022-11-28T11:58:51.735Z,99.9
2022-11-28T12:00:55.740Z,1
2022-11-28T12:02:59.908Z,1
2022-11-28T12:07:10.816Z,1
2022-11-28T12:13:22.839Z,1
2022-11-28T12:17:48.266Z,1
2022-11-28T12:19:34.853Z,1
2022-11-28T12:21:41.876Z,1
2022-11-28T12:23:45.917Z,1
2022-11-28T12:25:49.930Z,1
2022-11-28T12:26:53.442Z,1
2022-11-28T12:28:57.443Z,1
2022-11-28T12:31:01.553Z,1
2022-11-28T12:33:05.462Z,1
2022-11-28T12:35:12.514Z,1
2022-11-28T12:37:16.509Z,27.8
2022-11-28T12:39:20.540Z,28.5
2022-11-28T12:43:30.182Z,73.9
2022-11-28T12:45:34.110Z,38.8
2022-11-28T12:49:45.401Z,74.8
2022-11-28T12:51:49.150Z,63.8
2022-11-28T12:53:53.149Z,50.3
2022-11-28T12:55:57.172Z,99.6
2022-11-28T12:58:06.598Z,99.8
2022-11-28T13:00:08.940Z,99.8
2022-11-28T13:02:10.025Z,99.8
2022-11-28T13:04:16.226Z,99.8
2022-11-28T13:06:20.235Z,99.8
2022-11-28T13:08:24.246Z,99.9
2022-11-28T13:10:28.275Z,99.9
2022-11-28T13:12:32.285Z,99.9
2022-11-28T13:14:36.283Z,99.9
2022-11-28T13:16:40.327Z,99.9
2022-11-28T13:18:47.330Z,99.9
2022-11-28T13:20:51.354Z,99.9
2022-11-28T13:22:55.351Z,99.9
2022-11-28T13:27:23.529Z,99.9
2022-11-28T13:35:43.037Z,99.9
2022-11-28T13:39:51.029Z,99.9
2022-11-28T13:43:59.057Z,99.9
2022-11-28T13:50:14.105Z,99.9
2022-11-28T13:52:18.156Z,93
2022-11-28T13:54:22.179Z,54
2022-11-28T13:56:26.337Z,1
2022-11-28T13:58:30.165Z,9.2
2022-11-28T14:00:37.197Z,9
2022-11-28T14:02:41.920Z,1
2022-11-28T14:04:45.425Z,1
2022-11-28T14:06:49.249Z,1
2022-11-28T14:08:53.252Z,1
2022-11-28T14:10:57.274Z,1
2022-11-28T14:13:01.920Z,1
2022-11-28T14:15:08.184Z,1
2022-11-28T14:17:12.204Z,1
2022-11-28T14:19:16.258Z,1
2022-11-28T14:20:19.746Z,30.2
2022-11-28T14:22:23.777Z,30.3
2022-11-28T14:24:27.783Z,9.5
2022-11-28T14:26:31.807Z,30.6
2022-11-28T14:28:38.818Z,57.5
2022-11-28T14:30:42.998Z,68.6
2022-11-28T14:32:46.863Z,69.3
2022-11-28T14:34:50.876Z,75.3
2022-11-28T14:43:09.945Z,99.8
2022-11-28T14:45:13.999Z,99.8
2022-11-28T14:47:17.964Z,99.8
2022-11-28T14:49:22.608Z,99.9
2022-11-28T14:51:25.995Z,99.9
2022-11-28T14:53:29.998Z,99.9
2022-11-28T14:58:35.158Z,99.9
2022-11-28T14:59:45.064Z,99.9
2022-11-28T15:01:49.140Z,99.9
2022-11-28T15:03:53.096Z,99.9
2022-11-28T15:05:57.101Z,99.9
2022-11-28T15:08:01.109Z,99.9
2022-11-28T15:10:07.748Z,99.9
2022-11-28T15:14:16.156Z,99.9
2022-11-28T15:16:20.257Z,99.9
2022-11-28T15:17:23.693Z,99.9
2022-11-28T15:19:27.708Z,99.9
2022-11-28T15:21:31.727Z,99.9
2022-11-28T15:23:35.704Z,99.9
2022-11-28T15:25:42.752Z,99.9
2022-11-28T15:27:46.760Z,99.9
2022-11-28T15:31:54.789Z,99.9
2022-11-28T15:33:58.788Z,99.9
2022-11-28T15:36:02.814Z,99.9
2022-11-28T15:38:06.822Z,99.9
2022-11-28T15:40:13.858Z,99.9
2022-11-28T15:42:17.872Z,99.9
2022-11-28T15:44:21.861Z,99.9
2022-11-28T15:46:25.945Z,99.9
2022-11-28T15:48:32.609Z,99.9
2022-11-28T15:50:33.909Z,99.9
2022-11-28T15:52:37.932Z,99.9
2022-11-28T15:58:52.970Z,99.9
2022-11-28T16:03:01.050Z,99.9
2022-11-28T16:09:16.060Z,99.9
2022-11-28T16:13:24.071Z,99.9
2022-11-28T16:14:27.598Z,99.9
2022-11-28T16:16:37.242Z,99.9
2022-11-28T16:18:35.647Z,99.9
2022-11-28T16:20:39.668Z,99.9
2022-11-28T16:22:46.694Z,99.9
2022-11-28T16:26:54.759Z,99.9
2022-11-28T16:28:58.779Z,99.9
2022-11-28T16:33:06.787Z,1
2022-11-28T16:41:25.913Z,1
2022-11-28T16:43:29.927Z,1
2022-11-28T16:45:34.020Z,1
2022-11-28T16:47:37.983Z,1
2022-11-28T16:51:49.037Z,1
2022-11-28T16:55:57.077Z,1
2022-11-28T16:58:01.084Z,1
2022-11-28T17:00:05.120Z,1
2022-11-28T17:02:09.170Z,1
2022-11-28T17:04:13.196Z,1
2022-11-28T17:06:20.180Z,1
2022-11-28T17:08:29.022Z,1
2022-11-28T17:10:28.229Z,1
2022-11-28T17:12:52.736Z,1
2022-11-28T17:14:58.736Z,1
2022-11-28T17:17:00.761Z,1
2022-11-28T17:19:25.480Z,1
2022-11-28T17:21:11.820Z,1
2022-11-28T17:25:19.918Z,1
2022-11-28T17:27:23.878Z,1
2022-11-28T17:29:27.934Z,1
2022-11-28T17:31:31.931Z,1
2022-11-28T17:33:44.305Z,1
2022-11-28T17:35:42.969Z,1
2022-11-28T17:37:47.000Z,1
2022-11-28T17:39:51.014Z,1
2022-11-28T17:41:55.027Z,1
2022-11-28T17:43:59.024Z,1
2022-11-28T17:46:03.176Z,1
2022-11-28T17:48:12.555Z,1
2022-11-28T17:50:14.155Z,1
2022-11-28T17:52:18.115Z,1
2022-11-28T17:54:22.142Z,1
2022-11-28T17:56:26.157Z,1
2022-11-28T17:58:30.171Z,1
2022-11-28T18:00:34.177Z,1
2022-11-28T18:02:45.560Z,1
2022-11-28T18:04:45.227Z,1
2022-11-28T18:06:49.287Z,1
2022-11-28T18:07:52.776Z,1
2022-11-28T18:09:56.785Z,1
2022-11-28T18:14:04.806Z,1
2022-11-28T18:16:11.839Z,1
2022-11-28T18:18:15.833Z,1
2022-11-28T18:20:19.852Z,1
2022-11-28T18:24:27.895Z,1
2022-11-28T18:26:31.955Z,1
2022-11-28T18:28:35.948Z,1
2022-11-28T18:30:43.188Z,1
2022-11-28T18:32:47.016Z,1
2022-11-28T18:34:51.010Z,1
2022-11-28T18:36:55.015Z,1
2022-11-28T18:38:59.034Z,1
2022-11-28T18:41:04.590Z,1
2022-11-28T18:43:08.607Z,1
2022-11-28T18:45:15.613Z,1
2022-11-28T18:49:23.626Z,1
2022-11-28T18:51:27.629Z,1
2022-11-28T18:53:31.671Z,1
2022-11-28T18:55:35.691Z,1
2022-11-28T18:57:39.673Z,1
2022-11-28T18:59:54.252Z,1
2022-11-28T19:04:58.259Z,1
2022-11-28T19:07:02.309Z,1
2022-11-28T19:09:06.283Z,1
2022-11-28T19:11:10.282Z,1
2022-11-28T19:13:17.333Z,1
2022-11-28T19:15:21.350Z,1
2022-11-28T19:17:25.361Z,1
2022-11-28T19:19:29.353Z,1
2022-11-28T19:21:33.367Z,1
2022-11-28T19:23:37.364Z,1
2022-11-28T19:25:41.391Z,1
2022-11-28T19:27:48.410Z,1
2022-11-28T19:29:52.407Z,1
2022-11-28T19:31:56.464Z,1
2022-11-28T19:34:01.755Z,1
2022-11-28T19:36:04.408Z,1
2022-11-28T19:38:08.403Z,1
2022-11-28T19:40:12.379Z,1
2022-11-28T19:42:20.922Z,1
2022-11-28T19:44:23.370Z,1
2022-11-28T19:46:31.950Z,1
2022-11-28T19:48:31.366Z,1
2022-11-28T19:52:39.341Z,1
2022-11-28T19:56:50.324Z,1
2022-11-28T19:58:54.316Z,1
2022-11-28T20:00:58.311Z,1
2022-11-28T20:02:01.836Z,1
2022-11-28T20:04:05.742Z,1
2022-11-28T20:06:09.707Z,1
2022-11-28T20:08:13.706Z,1
2022-11-28T20:10:20.680Z,1
2022-11-28T20:14:28.635Z,1
2022-11-28T20:16:32.665Z,1
2022-11-28T20:18:37.442Z,1
2022-11-28T20:22:44.516Z,1
2022-11-28T20:33:54.216Z,1
2022-11-28T20:35:11.353Z,1
2022-11-28T20:37:16.315Z,1
2022-11-28T20:39:22.234Z,1
2022-11-28T20:43:30.180Z,1
2022-11-28T20:51:46.041Z,1
2022-11-28T20:53:53.044Z,1
2022-11-28T20:55:57.002Z,1
2022-11-28T20:58:00.988Z,1
2022-11-28T21:00:26.713Z,1
2022-11-28T21:02:29.193Z,1
2022-11-28T21:04:33.061Z,1
2022-11-28T21:06:40.078Z,1
2022-11-28T21:08:44.078Z,1
2022-11-28T21:10:48.050Z,1
2022-11-28T21:12:52.091Z,1
2022-11-28T21:15:02.447Z,1
2022-11-28T21:17:45.389Z,1
2022-11-28T21:21:11.015Z,1
2022-11-28T21:23:15.031Z,1
2022-11-28T21:25:19.411Z,1
2022-11-28T21:27:23.005Z,1
2022-11-28T21:29:27.015Z,1
2022-11-28T21:31:31.076Z,1
2022-11-28T21:43:58.000Z,1
2022-11-28T21:46:02.041Z,1
2022-11-28T21:48:05.997Z,1
2022-11-28T21:50:12.971Z,1
2022-11-28T21:52:16.995Z,1
2022-11-28T21:55:24.540Z,1
2022-11-28T21:57:28.464Z,1
2022-11-28T21:59:32.494Z,1
2022-11-28T22:01:36.555Z,1
2022-11-28T22:03:43.498Z,1
2022-11-28T22:05:47.471Z,1
2022-11-28T22:11:59.465Z,1
2022-11-28T22:14:03.480Z,1
2022-11-28T22:16:07.469Z,1
2022-11-28T22:18:14.444Z,1
2022-11-28T22:20:18.462Z,1
2022-11-28T22:22:22.431Z,1
2022-11-28T22:24:26.449Z,1
2022-11-28T22:26:30.444Z,1
2022-11-28T22:28:34.433Z,1
2022-11-28T22:30:38.419Z,1
2022-11-28T22:34:49.397Z,1
2022-11-28T22:36:53.467Z,1
2022-11-28T22:38:57.397Z,1
2022-11-28T22:41:01.399Z,1
2022-11-28T22:43:05.375Z,1
2022-11-28T22:45:09.326Z,1
2022-11-28T22:47:16.359Z,1
2022-11-28T22:49:20.333Z,1
2022-11-28T22:52:27.806Z,1
2022-11-28T22:54:31.797Z,1
2022-11-28T22:56:35.786Z,1
2022-11-28T22:58:42.633Z,1
2022-11-28T23:00:46.779Z,1
2022-11-28T23:02:50.842Z,1
2022-11-28T23:06:58.720Z,1
2022-11-28T23:09:02.729Z,1
2022-11-28T23:13:10.674Z,1
2022-11-28T23:15:17.695Z,1
2022-11-28T23:17:21.716Z,1
2022-11-28T23:21:29.646Z,1
2022-11-28T23:23:38.113Z,1
2022-11-28T23:25:37.674Z,1
2022-11-28T23:27:41.571Z,1
2022-11-28T23:29:50.186Z,1
2022-11-28T23:31:52.603Z,1
2022-11-28T23:33:56.518Z,1
2022-11-28T23:36:00.504Z,1
2022-11-28T23:38:04.500Z,1
2022-11-28T23:44:19.438Z,1
2022-11-28T23:46:23.423Z,1
2022-11-28T23:48:27.417Z,1
2022-11-28T23:49:30.902Z,1
2022-11-28T23:51:34.893Z,1
2022-11-28T23:53:38.864Z,1
2022-11-28T23:55:42.859Z,1
2022-11-28T23:57:49.837Z,1
2022-11-28T23:59:53.836Z,1
